sensor_id;sensor_type;location;lat;lon;timestamp;temperature;humidity
70366;DHT22;57787;48.216;12.396;2023-04-25T00:01:37;5.90;82.50
70366;DHT22;57787;48.216;12.396;2023-04-25T00:04:05;5.90;82.70
70366;DHT22;57787;48.216;12.396;2023-04-25T00:06:36;5.90;82.90
70366;DHT22;57787;48.216;12.396;2023-04-25T00:09:03;5.80;83.30
70366;DHT22;57787;48.216;12.396;2023-04-25T00:11:33;5.80;83.50
70366;DHT22;57787;48.216;12.396;2023-04-25T00:14:02;5.80;84.30
70366;DHT22;57787;48.216;12.396;2023-04-25T00:16:29;5.80;84.30
70366;DHT22;57787;48.216;12.396;2023-04-25T00:19:02;5.80;84.30
70366;DHT22;57787;48.216;12.396;2023-04-25T00:21:29;5.80;84.30
70366;DHT22;57787;48.216;12.396;2023-04-25T00:23:57;5.80;84.60
70366;DHT22;57787;48.216;12.396;2023-04-25T00:26:24;5.90;85.00
70366;DHT22;57787;48.216;12.396;2023-04-25T00:28:51;5.90;84.70
70366;DHT22;57787;48.216;12.396;2023-04-25T00:31:18;5.90;84.70
70366;DHT22;57787;48.216;12.396;2023-04-25T00:33:45;6.00;84.30
70366;DHT22;57787;48.216;12.396;2023-04-25T00:36:12;6.00;84.30
70366;DHT22;57787;48.216;12.396;2023-04-25T00:38:39;6.10;84.70
70366;DHT22;57787;48.216;12.396;2023-04-25T00:41:07;6.10;85.00
70366;DHT22;57787;48.216;12.396;2023-04-25T00:43:34;6.10;84.80
70366;DHT22;57787;48.216;12.396;2023-04-25T00:46:02;6.10;84.60
70366;DHT22;57787;48.216;12.396;2023-04-25T00:48:37;6.10;84.70
70366;DHT22;57787;48.216;12.396;2023-04-25T00:51:06;6.20;84.70
70366;DHT22;57787;48.216;12.396;2023-04-25T00:53:35;6.20;84.70
70366;DHT22;57787;48.216;12.396;2023-04-25T00:56:02;6.30;84.80
70366;DHT22;57787;48.216;12.396;2023-04-25T00:58:29;6.30;84.70
70366;DHT22;57787;48.216;12.396;2023-04-25T01:00:56;6.30;84.50
70366;DHT22;57787;48.216;12.396;2023-04-25T01:03:24;6.40;84.30
70366;DHT22;57787;48.216;12.396;2023-04-25T01:05:52;6.40;84.40
70366;DHT22;57787;48.216;12.396;2023-04-25T01:08:18;6.40;84.20
70366;DHT22;57787;48.216;12.396;2023-04-25T01:10:47;6.40;84.10
70366;DHT22;57787;48.216;12.396;2023-04-25T01:13:14;6.50;84.20
70366;DHT22;57787;48.216;12.396;2023-04-25T01:15:41;6.40;84.20
70366;DHT22;57787;48.216;12.396;2023-04-25T01:18:08;6.50;84.10
70366;DHT22;57787;48.216;12.396;2023-04-25T01:20:36;6.50;83.90
70366;DHT22;57787;48.216;12.396;2023-04-25T01:23:03;6.50;84.10
70366;DHT22;57787;48.216;12.396;2023-04-25T01:25:30;6.50;84.30
70366;DHT22;57787;48.216;12.396;2023-04-25T01:28:01;6.50;84.40
70366;DHT22;57787;48.216;12.396;2023-04-25T01:30:28;6.50;84.30
70366;DHT22;57787;48.216;12.396;2023-04-25T01:32:55;6.50;84.50
70366;DHT22;57787;48.216;12.396;2023-04-25T01:35:23;6.40;84.30
70366;DHT22;57787;48.216;12.396;2023-04-25T01:37:50;6.50;84.50
70366;DHT22;57787;48.216;12.396;2023-04-25T01:40:17;6.50;84.50
70366;DHT22;57787;48.216;12.396;2023-04-25T01:42:45;6.40;84.00
70366;DHT22;57787;48.216;12.396;2023-04-25T01:45:12;6.50;84.70
70366;DHT22;57787;48.216;12.396;2023-04-25T01:47:39;6.50;85.00
70366;DHT22;57787;48.216;12.396;2023-04-25T01:50:07;6.50;84.70
70366;DHT22;57787;48.216;12.396;2023-04-25T01:52:34;6.40;85.20
70366;DHT22;57787;48.216;12.396;2023-04-25T01:55:01;6.30;84.80
70366;DHT22;57787;48.216;12.396;2023-04-25T01:57:28;6.30;84.80
70366;DHT22;57787;48.216;12.396;2023-04-25T01:59:55;6.30;84.60
70366;DHT22;57787;48.216;12.396;2023-04-25T02:02:25;6.20;84.70
70366;DHT22;57787;48.216;12.396;2023-04-25T02:04:52;6.20;85.20
70366;DHT22;57787;48.216;12.396;2023-04-25T02:07:20;6.10;85.00
70366;DHT22;57787;48.216;12.396;2023-04-25T02:09:47;6.10;85.20
70366;DHT22;57787;48.216;12.396;2023-04-25T02:12:14;6.00;85.40
70366;DHT22;57787;48.216;12.396;2023-04-25T02:14:42;5.90;85.00
70366;DHT22;57787;48.216;12.396;2023-04-25T02:17:09;5.90;85.10
70366;DHT22;57787;48.216;12.396;2023-04-25T02:19:37;5.80;85.30
70366;DHT22;57787;48.216;12.396;2023-04-25T02:22:03;5.80;85.50
70366;DHT22;57787;48.216;12.396;2023-04-25T02:24:30;5.80;85.60
70366;DHT22;57787;48.216;12.396;2023-04-25T02:26:58;5.80;86.20
70366;DHT22;57787;48.216;12.396;2023-04-25T02:29:25;5.70;86.00
70366;DHT22;57787;48.216;12.396;2023-04-25T02:31:53;5.70;85.90
70366;DHT22;57787;48.216;12.396;2023-04-25T02:34:21;5.70;85.50
70366;DHT22;57787;48.216;12.396;2023-04-25T02:36:49;5.60;85.20
70366;DHT22;57787;48.216;12.396;2023-04-25T02:39:18;5.50;85.50
70366;DHT22;57787;48.216;12.396;2023-04-25T02:41:46;5.50;86.40
70366;DHT22;57787;48.216;12.396;2023-04-25T02:44:14;5.50;86.60
70366;DHT22;57787;48.216;12.396;2023-04-25T02:46:42;5.40;86.10
70366;DHT22;57787;48.216;12.396;2023-04-25T02:49:10;5.30;85.80
70366;DHT22;57787;48.216;12.396;2023-04-25T02:51:38;5.30;86.10
70366;DHT22;57787;48.216;12.396;2023-04-25T02:54:05;5.20;85.80
70366;DHT22;57787;48.216;12.396;2023-04-25T02:56:33;5.10;85.00
70366;DHT22;57787;48.216;12.396;2023-04-25T02:58:59;5.10;85.60
70366;DHT22;57787;48.216;12.396;2023-04-25T03:01:26;5.00;86.10
70366;DHT22;57787;48.216;12.396;2023-04-25T03:03:55;4.90;85.40
70366;DHT22;57787;48.216;12.396;2023-04-25T03:06:25;4.80;86.30
70366;DHT22;57787;48.216;12.396;2023-04-25T03:08:52;4.80;86.40
70366;DHT22;57787;48.216;12.396;2023-04-25T03:11:19;4.80;86.30
70366;DHT22;57787;48.216;12.396;2023-04-25T03:13:46;4.70;85.60
70366;DHT22;57787;48.216;12.396;2023-04-25T03:16:16;4.60;85.70
70366;DHT22;57787;48.216;12.396;2023-04-25T03:18:43;4.60;86.00
70366;DHT22;57787;48.216;12.396;2023-04-25T03:21:10;4.60;86.60
70366;DHT22;57787;48.216;12.396;2023-04-25T03:23:36;4.60;86.60
70366;DHT22;57787;48.216;12.396;2023-04-25T03:26:06;4.60;87.20
70366;DHT22;57787;48.216;12.396;2023-04-25T03:28:33;4.60;86.80
70366;DHT22;57787;48.216;12.396;2023-04-25T03:31:03;4.60;86.90
70366;DHT22;57787;48.216;12.396;2023-04-25T03:33:30;4.60;86.80
70366;DHT22;57787;48.216;12.396;2023-04-25T03:35:56;4.60;86.80
70366;DHT22;57787;48.216;12.396;2023-04-25T03:38:25;4.60;86.90
70366;DHT22;57787;48.216;12.396;2023-04-25T03:40:54;4.60;87.50
70366;DHT22;57787;48.216;12.396;2023-04-25T03:43:25;4.60;87.00
70366;DHT22;57787;48.216;12.396;2023-04-25T03:45:52;4.70;87.50
70366;DHT22;57787;48.216;12.396;2023-04-25T03:48:19;4.70;87.60
70366;DHT22;57787;48.216;12.396;2023-04-25T03:50:48;4.60;87.00
70366;DHT22;57787;48.216;12.396;2023-04-25T03:53:15;4.70;87.60
70366;DHT22;57787;48.216;12.396;2023-04-25T03:55:42;4.70;87.80
70366;DHT22;57787;48.216;12.396;2023-04-25T03:58:09;4.80;88.20
70366;DHT22;57787;48.216;12.396;2023-04-25T04:00:38;4.80;87.90
70366;DHT22;57787;48.216;12.396;2023-04-25T04:03:06;4.90;88.20
70366;DHT22;57787;48.216;12.396;2023-04-25T04:05:34;4.90;88.30
70366;DHT22;57787;48.216;12.396;2023-04-25T04:08:02;4.90;88.30
70366;DHT22;57787;48.216;12.396;2023-04-25T04:10:29;5.00;88.40
70366;DHT22;57787;48.216;12.396;2023-04-25T04:12:57;5.00;88.40
70366;DHT22;57787;48.216;12.396;2023-04-25T04:15:25;5.10;87.90
70366;DHT22;57787;48.216;12.396;2023-04-25T04:17:54;5.20;88.30
70366;DHT22;57787;48.216;12.396;2023-04-25T04:20:21;5.30;88.70
70366;DHT22;57787;48.216;12.396;2023-04-25T04:22:49;5.30;88.70
70366;DHT22;57787;48.216;12.396;2023-04-25T04:25:16;5.40;88.50
70366;DHT22;57787;48.216;12.396;2023-04-25T04:27:43;5.40;88.40
70366;DHT22;57787;48.216;12.396;2023-04-25T04:30:12;5.50;88.50
70366;DHT22;57787;48.216;12.396;2023-04-25T04:32:39;5.50;88.40
70366;DHT22;57787;48.216;12.396;2023-04-25T04:35:06;5.60;88.40
70366;DHT22;57787;48.216;12.396;2023-04-25T04:37:35;5.70;88.20
70366;DHT22;57787;48.216;12.396;2023-04-25T04:40:06;5.80;87.90
70366;DHT22;57787;48.216;12.396;2023-04-25T04:42:34;5.90;88.00
70366;DHT22;57787;48.216;12.396;2023-04-25T04:45:02;6.00;87.80
70366;DHT22;57787;48.216;12.396;2023-04-25T04:47:32;6.00;87.80
70366;DHT22;57787;48.216;12.396;2023-04-25T04:50:00;6.10;87.60
70366;DHT22;57787;48.216;12.396;2023-04-25T04:52:27;6.20;87.00
70366;DHT22;57787;48.216;12.396;2023-04-25T04:54:53;6.20;86.40
70366;DHT22;57787;48.216;12.396;2023-04-25T04:57:21;6.20;85.80
70366;DHT22;57787;48.216;12.396;2023-04-25T04:59:48;6.20;85.30
70366;DHT22;57787;48.216;12.396;2023-04-25T05:02:16;6.20;85.00
70366;DHT22;57787;48.216;12.396;2023-04-25T05:04:44;6.20;85.00
70366;DHT22;57787;48.216;12.396;2023-04-25T05:07:11;6.20;84.90
70366;DHT22;57787;48.216;12.396;2023-04-25T05:09:38;6.20;85.00
70366;DHT22;57787;48.216;12.396;2023-04-25T05:12:05;6.30;85.10
70366;DHT22;57787;48.216;12.396;2023-04-25T05:14:33;6.30;85.30
70366;DHT22;57787;48.216;12.396;2023-04-25T05:17:00;6.30;85.00
70366;DHT22;57787;48.216;12.396;2023-04-25T05:19:27;6.30;84.80
70366;DHT22;57787;48.216;12.396;2023-04-25T05:21:53;6.40;84.80
70366;DHT22;57787;48.216;12.396;2023-04-25T05:24:20;6.50;84.50
70366;DHT22;57787;48.216;12.396;2023-04-25T05:26:47;6.60;83.90
70366;DHT22;57787;48.216;12.396;2023-04-25T05:29:14;6.70;83.80
70366;DHT22;57787;48.216;12.396;2023-04-25T05:31:41;6.90;83.70
70366;DHT22;57787;48.216;12.396;2023-04-25T05:34:08;7.20;83.70
70366;DHT22;57787;48.216;12.396;2023-04-25T05:36:37;7.50;83.30
70366;DHT22;57787;48.216;12.396;2023-04-25T05:39:03;7.80;83.40
70366;DHT22;57787;48.216;12.396;2023-04-25T05:41:33;8.10;80.90
70366;DHT22;57787;48.216;12.396;2023-04-25T05:44:00;8.30;79.00
70366;DHT22;57787;48.216;12.396;2023-04-25T05:46:27;8.30;78.00
70366;DHT22;57787;48.216;12.396;2023-04-25T05:48:54;8.40;77.70
70366;DHT22;57787;48.216;12.396;2023-04-25T05:51:21;8.40;77.70
70366;DHT22;57787;48.216;12.396;2023-04-25T05:53:51;8.60;78.20
70366;DHT22;57787;48.216;12.396;2023-04-25T05:56:18;8.70;78.30
70366;DHT22;57787;48.216;12.396;2023-04-25T05:58:45;8.80;77.70
70366;DHT22;57787;48.216;12.396;2023-04-25T06:01:12;9.00;77.30
70366;DHT22;57787;48.216;12.396;2023-04-25T06:03:39;9.10;77.00
70366;DHT22;57787;48.216;12.396;2023-04-25T06:06:12;9.20;76.70
70366;DHT22;57787;48.216;12.396;2023-04-25T06:08:40;9.30;76.10
70366;DHT22;57787;48.216;12.396;2023-04-25T06:11:09;9.40;75.60
70366;DHT22;57787;48.216;12.396;2023-04-25T06:13:37;9.40;75.30
70366;DHT22;57787;48.216;12.396;2023-04-25T06:16:04;9.40;74.40
70366;DHT22;57787;48.216;12.396;2023-04-25T06:18:31;9.50;75.00
70366;DHT22;57787;48.216;12.396;2023-04-25T06:20:59;9.50;74.50
70366;DHT22;57787;48.216;12.396;2023-04-25T06:23:28;9.60;74.10
70366;DHT22;57787;48.216;12.396;2023-04-25T06:25:55;9.60;74.80
70366;DHT22;57787;48.216;12.396;2023-04-25T06:28:22;9.70;74.90
70366;DHT22;57787;48.216;12.396;2023-04-25T06:30:51;9.80;74.60
70366;DHT22;57787;48.216;12.396;2023-04-25T06:33:18;9.90;75.00
70366;DHT22;57787;48.216;12.396;2023-04-25T06:35:45;9.90;74.80
70366;DHT22;57787;48.216;12.396;2023-04-25T06:38:13;10.00;75.50
70366;DHT22;57787;48.216;12.396;2023-04-25T06:40:41;10.00;74.90
70366;DHT22;57787;48.216;12.396;2023-04-25T06:43:15;10.10;73.70
70366;DHT22;57787;48.216;12.396;2023-04-25T06:45:42;10.20;74.00
70366;DHT22;57787;48.216;12.396;2023-04-25T06:48:12;10.30;73.20
70366;DHT22;57787;48.216;12.396;2023-04-25T06:50:40;10.30;73.40
70366;DHT22;57787;48.216;12.396;2023-04-25T06:53:07;10.40;73.40
70366;DHT22;57787;48.216;12.396;2023-04-25T06:55:35;10.40;73.70
70366;DHT22;57787;48.216;12.396;2023-04-25T06:58:02;10.60;74.40
70366;DHT22;57787;48.216;12.396;2023-04-25T07:00:31;10.80;74.50
70366;DHT22;57787;48.216;12.396;2023-04-25T07:02:58;11.00;74.10
70366;DHT22;57787;48.216;12.396;2023-04-25T07:05:26;11.10;73.60
70366;DHT22;57787;48.216;12.396;2023-04-25T07:07:53;11.10;71.60
70366;DHT22;57787;48.216;12.396;2023-04-25T07:10:25;11.10;72.40
70366;DHT22;57787;48.216;12.396;2023-04-25T07:12:52;11.10;73.70
70366;DHT22;57787;48.216;12.396;2023-04-25T07:15:19;11.10;73.60
70366;DHT22;57787;48.216;12.396;2023-04-25T07:17:46;11.20;73.80
70366;DHT22;57787;48.216;12.396;2023-04-25T07:20:14;11.30;72.60
70366;DHT22;57787;48.216;12.396;2023-04-25T07:22:41;11.30;71.70
70366;DHT22;57787;48.216;12.396;2023-04-25T07:25:09;11.40;70.50
70366;DHT22;57787;48.216;12.396;2023-04-25T07:27:39;11.40;71.50
70366;DHT22;57787;48.216;12.396;2023-04-25T07:30:08;11.30;70.40
70366;DHT22;57787;48.216;12.396;2023-04-25T07:32:35;11.30;70.90
70366;DHT22;57787;48.216;12.396;2023-04-25T07:35:01;11.10;71.00
70366;DHT22;57787;48.216;12.396;2023-04-25T07:37:31;11.10;72.60
70366;DHT22;57787;48.216;12.396;2023-04-25T07:39:59;11.00;71.40
70366;DHT22;57787;48.216;12.396;2023-04-25T07:42:26;10.90;72.00
70366;DHT22;57787;48.216;12.396;2023-04-25T07:44:53;10.80;72.60
70366;DHT22;57787;48.216;12.396;2023-04-25T07:47:20;10.80;73.00
70366;DHT22;57787;48.216;12.396;2023-04-25T07:49:50;10.70;71.90
70366;DHT22;57787;48.216;12.396;2023-04-25T07:52:21;10.60;72.70
70366;DHT22;57787;48.216;12.396;2023-04-25T07:54:48;10.60;73.20
70366;DHT22;57787;48.216;12.396;2023-04-25T07:57:24;10.50;73.80
70366;DHT22;57787;48.216;12.396;2023-04-25T07:59:53;10.40;73.50
70366;DHT22;57787;48.216;12.396;2023-04-25T08:02:20;10.30;73.70
70366;DHT22;57787;48.216;12.396;2023-04-25T08:04:47;10.20;74.40
70366;DHT22;57787;48.216;12.396;2023-04-25T08:07:16;10.20;75.70
70366;DHT22;57787;48.216;12.396;2023-04-25T08:09:43;10.30;75.80
70366;DHT22;57787;48.216;12.396;2023-04-25T08:12:11;10.30;75.40
70366;DHT22;57787;48.216;12.396;2023-04-25T08:14:39;10.30;74.80
70366;DHT22;57787;48.216;12.396;2023-04-25T08:17:16;10.40;75.50
70366;DHT22;57787;48.216;12.396;2023-04-25T08:19:42;10.60;75.50
70366;DHT22;57787;48.216;12.396;2023-04-25T08:22:10;10.80;75.40
70366;DHT22;57787;48.216;12.396;2023-04-25T08:24:37;10.90;74.80
70366;DHT22;57787;48.216;12.396;2023-04-25T08:27:05;11.10;73.80
70366;DHT22;57787;48.216;12.396;2023-04-25T08:29:33;11.20;71.70
70366;DHT22;57787;48.216;12.396;2023-04-25T08:32:05;11.30;71.20
70366;DHT22;57787;48.216;12.396;2023-04-25T08:34:32;11.30;71.50
70366;DHT22;57787;48.216;12.396;2023-04-25T08:36:59;11.10;71.10
70366;DHT22;57787;48.216;12.396;2023-04-25T08:39:27;11.00;71.60
70366;DHT22;57787;48.216;12.396;2023-04-25T08:41:55;10.90;71.80
70366;DHT22;57787;48.216;12.396;2023-04-25T08:44:24;11.00;72.40
70366;DHT22;57787;48.216;12.396;2023-04-25T08:46:52;11.00;73.30
70366;DHT22;57787;48.216;12.396;2023-04-25T08:49:19;11.10;73.00
70366;DHT22;57787;48.216;12.396;2023-04-25T08:51:46;11.30;73.70
70366;DHT22;57787;48.216;12.396;2023-04-25T08:54:17;11.40;72.60
70366;DHT22;57787;48.216;12.396;2023-04-25T08:57:02;11.60;73.90
70366;DHT22;57787;48.216;12.396;2023-04-25T08:59:30;11.90;74.20
70366;DHT22;57787;48.216;12.396;2023-04-25T09:02:04;12.20;74.00
70366;DHT22;57787;48.216;12.396;2023-04-25T09:04:32;12.40;74.10
70366;DHT22;57787;48.216;12.396;2023-04-25T09:07:03;12.70;72.30
70366;DHT22;57787;48.216;12.396;2023-04-25T09:09:31;12.90;68.60
70366;DHT22;57787;48.216;12.396;2023-04-25T09:11:58;13.10;70.60
70366;DHT22;57787;48.216;12.396;2023-04-25T09:14:30;13.30;70.20
70366;DHT22;57787;48.216;12.396;2023-04-25T09:16:57;13.70;69.70
70366;DHT22;57787;48.216;12.396;2023-04-25T09:19:27;13.90;63.00
70366;DHT22;57787;48.216;12.396;2023-04-25T09:22:06;14.10;66.60
70366;DHT22;57787;48.216;12.396;2023-04-25T09:24:38;14.30;66.00
70366;DHT22;57787;48.216;12.396;2023-04-25T09:27:05;14.50;66.00
70366;DHT22;57787;48.216;12.396;2023-04-25T09:29:37;14.60;64.50
70366;DHT22;57787;48.216;12.396;2023-04-25T09:32:15;14.60;65.00
70366;DHT22;57787;48.216;12.396;2023-04-25T09:34:43;14.60;64.10
70366;DHT22;57787;48.216;12.396;2023-04-25T09:37:13;14.70;64.00
70366;DHT22;57787;48.216;12.396;2023-04-25T09:39:44;14.80;64.30
70366;DHT22;57787;48.216;12.396;2023-04-25T09:42:16;14.90;64.00
70366;DHT22;57787;48.216;12.396;2023-04-25T09:44:44;14.90;62.80
70366;DHT22;57787;48.216;12.396;2023-04-25T09:47:11;14.90;59.10
70366;DHT22;57787;48.216;12.396;2023-04-25T09:49:47;15.00;61.50
70366;DHT22;57787;48.216;12.396;2023-04-25T09:52:15;15.00;60.40
70366;DHT22;57787;48.216;12.396;2023-04-25T09:54:43;14.80;56.10
70366;DHT22;57787;48.216;12.396;2023-04-25T09:57:14;15.10;57.80
70366;DHT22;57787;48.216;12.396;2023-04-25T09:59:45;15.20;58.10
70366;DHT22;57787;48.216;12.396;2023-04-25T10:02:16;15.30;60.10
70366;DHT22;57787;48.216;12.396;2023-04-25T10:04:44;15.10;54.40
70366;DHT22;57787;48.216;12.396;2023-04-25T10:07:15;15.10;56.70
70366;DHT22;57787;48.216;12.396;2023-04-25T10:09:43;15.10;57.30
70366;DHT22;57787;48.216;12.396;2023-04-25T10:12:13;15.00;56.30
70366;DHT22;57787;48.216;12.396;2023-04-25T10:14:40;14.80;55.50
70366;DHT22;57787;48.216;12.396;2023-04-25T10:17:10;14.70;55.80
70366;DHT22;57787;48.216;12.396;2023-04-25T10:19:39;14.60;56.70
70366;DHT22;57787;48.216;12.396;2023-04-25T10:22:20;14.70;57.20
70366;DHT22;57787;48.216;12.396;2023-04-25T10:24:49;14.70;57.70
70366;DHT22;57787;48.216;12.396;2023-04-25T10:27:19;14.50;58.20
70366;DHT22;57787;48.216;12.396;2023-04-25T10:29:45;14.30;59.40
70366;DHT22;57787;48.216;12.396;2023-04-25T10:32:30;13.90;61.50
70366;DHT22;57787;48.216;12.396;2023-04-25T10:34:58;13.60;65.00
70366;DHT22;57787;48.216;12.396;2023-04-25T10:37:36;13.50;66.60
70366;DHT22;57787;48.216;12.396;2023-04-25T10:40:11;13.30;65.40
70366;DHT22;57787;48.216;12.396;2023-04-25T10:42:40;13.30;65.80
70366;DHT22;57787;48.216;12.396;2023-04-25T10:45:16;13.40;65.50
70366;DHT22;57787;48.216;12.396;2023-04-25T10:47:44;13.50;68.80
70366;DHT22;57787;48.216;12.396;2023-04-25T10:50:12;13.60;63.50
70366;DHT22;57787;48.216;12.396;2023-04-25T10:52:42;13.70;61.80
70366;DHT22;57787;48.216;12.396;2023-04-25T10:55:09;14.10;62.80
70366;DHT22;57787;48.216;12.396;2023-04-25T10:57:37;14.10;60.40
70366;DHT22;57787;48.216;12.396;2023-04-25T11:02:31;14.20;58.80
70366;DHT22;57787;48.216;12.396;2023-04-25T11:04:59;14.10;55.50
70366;DHT22;57787;48.216;12.396;2023-04-25T11:07:49;14.10;55.00
70366;DHT22;57787;48.216;12.396;2023-04-25T11:10:30;13.90;55.80
70366;DHT22;57787;48.216;12.396;2023-04-25T11:13:00;13.80;56.80
70366;DHT22;57787;48.216;12.396;2023-04-25T11:15:28;13.90;57.20
70366;DHT22;57787;48.216;12.396;2023-04-25T11:17:55;14.00;55.90
70366;DHT22;57787;48.216;12.396;2023-04-25T11:20:22;14.10;56.40
70366;DHT22;57787;48.216;12.396;2023-04-25T11:22:59;14.30;56.50
70366;DHT22;57787;48.216;12.396;2023-04-25T11:25:26;14.40;57.10
70366;DHT22;57787;48.216;12.396;2023-04-25T11:27:54;14.80;55.60
70366;DHT22;57787;48.216;12.396;2023-04-25T11:30:22;14.80;54.50
70366;DHT22;57787;48.216;12.396;2023-04-25T11:32:50;14.80;55.30
70366;DHT22;57787;48.216;12.396;2023-04-25T11:35:20;14.60;55.50
70366;DHT22;57787;48.216;12.396;2023-04-25T11:37:51;14.70;57.60
70366;DHT22;57787;48.216;12.396;2023-04-25T11:40:23;14.80;55.20
70366;DHT22;57787;48.216;12.396;2023-04-25T11:42:49;14.70;56.30
70366;DHT22;57787;48.216;12.396;2023-04-25T11:45:20;14.50;57.50
70366;DHT22;57787;48.216;12.396;2023-04-25T11:47:47;14.30;60.90
70366;DHT22;57787;48.216;12.396;2023-04-25T11:50:15;13.80;60.20
70366;DHT22;57787;48.216;12.396;2023-04-25T11:52:43;13.30;60.70
70366;DHT22;57787;48.216;12.396;2023-04-25T11:55:13;12.80;60.80
70366;DHT22;57787;48.216;12.396;2023-04-25T11:57:41;12.40;60.30
70366;DHT22;57787;48.216;12.396;2023-04-25T12:00:15;12.00;62.20
70366;DHT22;57787;48.216;12.396;2023-04-25T12:02:50;11.90;65.30
70366;DHT22;57787;48.216;12.396;2023-04-25T12:05:18;12.00;66.70
70366;DHT22;57787;48.216;12.396;2023-04-25T12:08:14;12.30;65.60
70366;DHT22;57787;48.216;12.396;2023-04-25T12:10:44;12.60;65.60
70366;DHT22;57787;48.216;12.396;2023-04-25T12:13:22;12.80;64.70
70366;DHT22;57787;48.216;12.396;2023-04-25T12:15:50;12.80;65.80
70366;DHT22;57787;48.216;12.396;2023-04-25T12:18:20;12.30;64.70
70366;DHT22;57787;48.216;12.396;2023-04-25T12:20:48;11.80;67.90
70366;DHT22;57787;48.216;12.396;2023-04-25T12:23:24;11.30;69.00
70366;DHT22;57787;48.216;12.396;2023-04-25T12:25:55;10.90;72.60
70366;DHT22;57787;48.216;12.396;2023-04-25T12:28:23;10.70;73.20
70366;DHT22;57787;48.216;12.396;2023-04-25T12:36:14;10.20;75.50
70366;DHT22;57787;48.216;12.396;2023-04-25T12:38:52;10.00;76.30
70366;DHT22;57787;48.216;12.396;2023-04-25T12:41:29;9.90;76.70
70366;DHT22;57787;48.216;12.396;2023-04-25T12:43:57;9.80;77.50
70366;DHT22;57787;48.216;12.396;2023-04-25T12:46:25;9.80;77.40
70366;DHT22;57787;48.216;12.396;2023-04-25T12:48:53;9.80;78.20
70366;DHT22;57787;48.216;12.396;2023-04-25T12:51:24;9.80;78.10
70366;DHT22;57787;48.216;12.396;2023-04-25T12:53:55;9.90;78.70
70366;DHT22;57787;48.216;12.396;2023-04-25T12:56:23;10.00;79.20
70366;DHT22;57787;48.216;12.396;2023-04-25T12:58:56;10.20;78.40
70366;DHT22;57787;48.216;12.396;2023-04-25T13:01:37;10.30;78.20
70366;DHT22;57787;48.216;12.396;2023-04-25T13:15:07;10.60;77.00
70366;DHT22;57787;48.216;12.396;2023-04-25T13:17:40;10.60;75.30
70366;DHT22;57787;48.216;12.396;2023-04-25T13:20:24;10.60;76.10
70366;DHT22;57787;48.216;12.396;2023-04-25T13:22:53;10.60;77.80
70366;DHT22;57787;48.216;12.396;2023-04-25T13:25:26;10.60;76.80
70366;DHT22;57787;48.216;12.396;2023-04-25T13:27:55;10.80;77.40
70366;DHT22;57787;48.216;12.396;2023-04-25T13:30:24;10.90;76.90
70366;DHT22;57787;48.216;12.396;2023-04-25T13:32:54;11.10;75.30
70366;DHT22;57787;48.216;12.396;2023-04-25T13:35:25;11.20;75.30
70366;DHT22;57787;48.216;12.396;2023-04-25T13:37:52;11.60;76.00
70366;DHT22;57787;48.216;12.396;2023-04-25T13:40:21;11.90;76.20
70366;DHT22;57787;48.216;12.396;2023-04-25T13:42:51;12.00;71.90
70366;DHT22;57787;48.216;12.396;2023-04-25T13:45:19;12.30;71.40
70366;DHT22;57787;48.216;12.396;2023-04-25T13:47:46;12.30;70.00
70366;DHT22;57787;48.216;12.396;2023-04-25T13:50:13;12.30;71.00
70366;DHT22;57787;48.216;12.396;2023-04-25T13:52:40;12.20;69.90
70366;DHT22;57787;48.216;12.396;2023-04-25T13:55:07;12.10;71.90
70366;DHT22;57787;48.216;12.396;2023-04-25T13:57:35;12.00;70.60
70366;DHT22;57787;48.216;12.396;2023-04-25T14:00:04;11.80;70.00
70366;DHT22;57787;48.216;12.396;2023-04-25T14:02:38;11.60;73.60
70366;DHT22;57787;48.216;12.396;2023-04-25T14:07:46;11.20;74.60
70366;DHT22;57787;48.216;12.396;2023-04-25T14:10:31;11.10;73.70
70366;DHT22;57787;48.216;12.396;2023-04-25T14:18:15;11.50;74.60
70366;DHT22;57787;48.216;12.396;2023-04-25T14:20:42;11.70;74.30
70366;DHT22;57787;48.216;12.396;2023-04-25T14:23:09;11.90;75.90
70366;DHT22;57787;48.216;12.396;2023-04-25T14:25:37;12.20;75.90
70366;DHT22;57787;48.216;12.396;2023-04-25T14:28:05;12.30;75.20
70366;DHT22;57787;48.216;12.396;2023-04-25T14:30:32;12.50;75.60
70366;DHT22;57787;48.216;12.396;2023-04-25T14:33:00;12.80;75.20
70366;DHT22;57787;48.216;12.396;2023-04-25T14:35:29;12.80;74.60
70366;DHT22;57787;48.216;12.396;2023-04-25T14:37:57;13.00;74.50
70366;DHT22;57787;48.216;12.396;2023-04-25T14:40:25;13.10;74.20
70366;DHT22;57787;48.216;12.396;2023-04-25T14:42:52;13.20;73.00
70366;DHT22;57787;48.216;12.396;2023-04-25T14:45:18;13.20;72.40
70366;DHT22;57787;48.216;12.396;2023-04-25T14:47:46;13.30;71.70
70366;DHT22;57787;48.216;12.396;2023-04-25T14:50:13;13.30;70.80
70366;DHT22;57787;48.216;12.396;2023-04-25T14:52:40;13.20;69.30
70366;DHT22;57787;48.216;12.396;2023-04-25T14:55:10;13.10;70.90
70366;DHT22;57787;48.216;12.396;2023-04-25T14:57:37;13.10;70.20
70366;DHT22;57787;48.216;12.396;2023-04-25T15:00:05;13.10;71.40
70366;DHT22;57787;48.216;12.396;2023-04-25T15:02:37;13.10;69.10
70366;DHT22;57787;48.216;12.396;2023-04-25T15:05:04;13.10;68.90
70366;DHT22;57787;48.216;12.396;2023-04-25T15:07:31;13.20;70.30
70366;DHT22;57787;48.216;12.396;2023-04-25T15:09:58;13.30;69.20
70366;DHT22;57787;48.216;12.396;2023-04-25T15:12:25;13.30;71.10
70366;DHT22;57787;48.216;12.396;2023-04-25T15:14:54;13.10;68.70
70366;DHT22;57787;48.216;12.396;2023-04-25T15:17:21;13.00;70.80
70366;DHT22;57787;48.216;12.396;2023-04-25T15:19:47;12.90;70.70
70366;DHT22;57787;48.216;12.396;2023-04-25T15:22:14;12.80;71.30
70366;DHT22;57787;48.216;12.396;2023-04-25T15:24:41;12.70;71.40
70366;DHT22;57787;48.216;12.396;2023-04-25T15:27:10;12.70;70.80
70366;DHT22;57787;48.216;12.396;2023-04-25T15:29:37;12.60;71.10
70366;DHT22;57787;48.216;12.396;2023-04-25T15:32:04;12.60;71.10
70366;DHT22;57787;48.216;12.396;2023-04-25T15:34:31;12.60;72.20
70366;DHT22;57787;48.216;12.396;2023-04-25T15:37:02;12.70;70.20
70366;DHT22;57787;48.216;12.396;2023-04-25T15:39:29;12.70;71.10
70366;DHT22;57787;48.216;12.396;2023-04-25T15:41:56;12.90;72.60
70366;DHT22;57787;48.216;12.396;2023-04-25T15:44:27;13.00;68.30
70366;DHT22;57787;48.216;12.396;2023-04-25T15:46:56;13.00;69.80
70366;DHT22;57787;48.216;12.396;2023-04-25T15:49:24;12.90;69.40
70366;DHT22;57787;48.216;12.396;2023-04-25T15:51:51;12.90;71.80
70366;DHT22;57787;48.216;12.396;2023-04-25T15:54:18;12.90;70.80
70366;DHT22;57787;48.216;12.396;2023-04-25T15:56:45;12.90;69.70
70366;DHT22;57787;48.216;12.396;2023-04-25T15:59:13;12.90;71.30